Time;durP1;ratioP1;P1;durP2;ratioP2;P2;SDS_P1;SDS_P2;PMS_P1;PMS_P2;Temp;Humidity;BMP_temperature;BMP_pressure;BME280_temperature;BME280_humidity;BME280_pressure;Samples;Min_cycle;Max_cycle;Signal;HPM_P1;HPM_P2
2023/01/09 00:02:03;;;;;;;10.30;4.93;;;;;;;4.17;100.00;92355.38;5009717;28;20057;-63
2023/01/09 00:04:30;;;;;;;10.15;5.03;;;;;;;4.17;100.00;92358.09;5010747;28;20111;-63
2023/01/09 00:06:56;;;;;;;11.15;5.10;;;;;;;4.21;100.00;92353.38;5010411;28;20046;-63
2023/01/09 00:09:23;;;;;;;9.98;4.78;;;;;;;4.25;100.00;92343.22;5010463;28;20046;-63
2023/01/09 00:11:51;;;;;;;9.82;4.70;;;;;;;4.29;100.00;92337.72;5010769;28;20052;-63
2023/01/09 00:14:18;;;;;;;7.87;4.50;;;;;;;4.34;100.00;92324.44;5010281;28;20061;-63
2023/01/09 00:16:45;;;;;;;7.07;4.07;;;;;;;4.37;100.00;92326.31;5010551;28;20496;-63
2023/01/09 00:19:12;;;;;;;9.77;3.97;;;;;;;4.43;100.00;92315.75;5010339;28;20095;-63
2023/01/09 00:21:39;;;;;;;6.93;3.80;;;;;;;4.48;100.00;92312.53;5010594;28;20072;-63
2023/01/09 00:24:06;;;;;;;8.10;4.00;;;;;;;4.53;100.00;92311.31;5009981;28;20046;-63
2023/01/09 00:26:34;;;;;;;7.33;3.70;;;;;;;4.56;100.00;92327.53;5010630;28;20060;-63
2023/01/09 00:29:01;;;;;;;6.60;3.60;;;;;;;4.52;100.00;92321.38;5009851;28;20046;-62
2023/01/09 00:31:28;;;;;;;6.78;3.30;;;;;;;4.51;100.00;92322.59;5010685;28;20038;-63
2023/01/09 00:33:59;;;;;;;7.45;4.10;;;;;;;4.52;100.00;92313.25;5010345;28;20510;-63
2023/01/09 00:36:27;;;;;;;8.75;4.70;;;;;;;4.52;100.00;92313.25;5001690;28;20669;-63
2023/01/09 00:38:53;;;;;;;9.40;4.27;;;;;;;4.57;100.00;92312.78;5010302;28;20096;-63
2023/01/09 00:41:28;;;;;;;8.15;4.25;;;;;;;4.56;100.00;92316.66;5010082;28;20394;-63
2023/01/09 00:44:05;;;;;;;7.55;4.10;;;;;;;4.50;100.00;92306.69;5010236;28;20050;-63
2023/01/09 00:46:38;;;;;;;9.05;4.38;;;;;;;4.55;100.00;92315.13;4997238;28;20826;-63
2023/01/09 00:49:07;;;;;;;7.50;4.47;;;;;;;4.51;100.00;92316.41;5006761;28;20509;-63
2023/01/09 00:51:35;;;;;;;7.77;4.13;;;;;;;4.51;100.00;92303.56;5010339;28;20568;-63
2023/01/09 00:54:02;;;;;;;8.20;4.55;;;;;;;4.58;100.00;92316.25;5009777;28;20553;-63
2023/01/09 00:56:30;;;;;;;8.63;4.80;;;;;;;4.60;100.00;92317.34;5010288;28;20052;-63
2023/01/09 00:58:57;;;;;;;8.05;4.55;;;;;;;4.63;100.00;92315.00;5010033;28;20045;-63
2023/01/09 01:01:23;;;;;;;10.43;5.07;;;;;;;4.65;100.00;92318.84;5009199;28;20052;-63
2023/01/09 01:03:50;;;;;;;7.87;3.83;;;;;;;4.64;100.00;92319.25;5009909;28;20052;-63
2023/01/09 01:09:02;;;;;;;10.15;4.18;;;;;;;4.68;100.00;92311.81;5009601;28;20398;-63
2023/01/09 01:11:30;;;;;;;6.68;3.20;;;;;;;4.69;100.00;92310.59;5010100;28;20048;-63
2023/01/09 01:13:58;;;;;;;9.20;3.65;;;;;;;4.75;100.00;92301.56;5009940;28;20050;-64
2023/01/09 01:16:24;;;;;;;11.17;4.27;;;;;;;4.77;100.00;92303.88;5009796;28;20050;-63
2023/01/09 01:18:51;;;;;;;8.80;3.78;;;;;;;4.76;100.00;92294.94;5013664;28;20050;-64
2023/01/09 01:21:18;;;;;;;10.18;4.20;;;;;;;4.79;100.00;92291.41;5013322;28;20054;-63
2023/01/09 01:23:45;;;;;;;7.25;3.60;;;;;;;4.74;100.00;92294.59;5013701;28;20434;-64
2023/01/09 01:26:14;;;;;;;6.28;3.55;;;;;;;4.72;100.00;92283.38;5013142;28;20038;-64
2023/01/09 01:28:41;;;;;;;9.50;3.90;;;;;;;4.73;100.00;92301.22;5013870;28;20083;-64
2023/01/09 01:31:15;;;;;;;5.95;3.10;;;;;;;4.68;100.00;92295.50;5013024;28;20533;-64
2023/01/09 01:33:41;;;;;;;7.72;3.58;;;;;;;4.67;100.00;92308.31;5013883;28;20046;-64
2023/01/09 01:36:08;;;;;;;8.55;3.55;;;;;;;4.68;100.00;92309.09;5013086;28;20410;-63
2023/01/09 01:38:35;;;;;;;7.63;3.35;;;;;;;4.71;100.00;92308.22;5013787;28;20046;-64
2023/01/09 01:41:03;;;;;;;8.03;3.60;;;;;;;4.72;100.00;92312.50;5012854;28;20548;-63
2023/01/09 01:43:54;;;;;;;6.55;3.70;;;;;;;4.76;100.00;92308.53;5013404;28;20080;-64
2023/01/09 01:46:21;;;;;;;10.07;4.10;;;;;;;4.75;100.00;92304.28;5012873;28;20053;-64
2023/01/09 01:48:56;;;;;;;6.00;3.53;;;;;;;4.77;100.00;92303.88;5013280;28;20400;-63
2023/01/09 01:51:25;;;;;;;5.30;2.70;;;;;;;4.77;100.00;92293.75;5013231;28;20441;-63
2023/01/09 01:53:56;;;;;;;8.77;3.70;;;;;;;4.82;100.00;92280.88;5013169;28;20057;-64
2023/01/09 01:56:31;;;;;;;9.00;3.00;;;;;;;4.81;100.00;92288.25;5012743;28;20041;-64
2023/01/09 01:59:10;;;;;;;15.00;5.93;;;;;;;4.78;100.00;92302.69;5013005;28;20056;-64
2023/01/09 02:01:41;;;;;;;11.82;4.25;;;;;;;4.74;100.00;92286.44;5012072;28;20872;-64
2023/01/09 02:04:08;;;;;;;7.57;3.53;;;;;;;4.70;100.00;92296.59;5012511;28;20115;-64
2023/01/09 02:06:36;;;;;;;5.70;2.93;;;;;;;4.67;100.00;92304.81;5013055;28;20042;-64
2023/01/09 02:09:04;;;;;;;6.78;3.08;;;;;;;4.62;100.00;92308.81;5012293;28;20054;-64
2023/01/09 02:11:32;;;;;;;4.00;2.55;;;;;;;4.68;100.00;92309.09;5012842;28;20046;-64
2023/01/09 02:14:00;;;;;;;4.45;2.30;;;;;;;4.68;100.00;92317.25;5012706;28;20054;-64
2023/01/09 02:17:05;;;;;;;4.55;1.90;;;;;;;4.68;100.00;92312.56;5012144;28;20604;-64
2023/01/09 02:19:57;;;;;;;2.80;1.40;;;;;;;4.69;100.00;92305.16;4995525;28;21514;-64
2023/01/09 02:22:42;;;;;;;3.08;1.60;;;;;;;4.67;100.00;92293.94;4973570;28;20046;-64
2023/01/09 02:25:34;;;;;;;2.83;1.27;;;;;;;4.67;100.00;92296.66;4981558;28;20594;-64
2023/01/09 02:28:19;;;;;;;2.80;1.60;;;;;;;4.69;100.00;92302.44;5011394;28;20123;-63
2023/01/09 02:30:52;;;;;;;2.90;1.60;;;;;;;4.63;100.00;92307.63;5012003;28;20871;-64
2023/01/09 02:33:34;;;;;;;3.27;1.30;;;;;;;4.65;100.00;92301.75;5012395;28;20488;-64
2023/01/09 02:36:15;;;;;;;2.17;1.10;;;;;;;4.62;100.00;92303.38;5011901;28;20056;-63
2023/01/09 02:38:48;;;;;;;2.22;1.15;;;;;;;4.68;100.00;92311.81;5012581;28;20046;-64
2023/01/09 02:41:37;;;;;;;2.20;1.20;;;;;;;4.65;100.00;92310.69;5011840;28;20543;-64
2023/01/09 02:44:26;;;;;;;3.13;1.10;;;;;;;4.65;100.00;92312.63;5011826;28;20057;-64
2023/01/09 02:47:04;;;;;;;2.00;1.00;;;;;;;4.64;100.00;92317.28;5012084;28;20042;-64
2023/01/09 02:49:35;;;;;;;1.95;1.00;;;;;;;4.62;100.00;92319.66;5011522;28;20064;-64
2023/01/09 02:52:13;;;;;;;1.80;1.00;;;;;;;4.62;100.00;92333.25;5011630;28;20050;-64
2023/01/09 02:55:09;;;;;;;1.85;0.80;;;;;;;4.62;100.00;92330.53;5012257;28;20107;-64
2023/01/09 02:57:45;;;;;;;1.67;0.73;;;;;;;4.65;100.00;92329.72;4993562;28;20395;-64
2023/01/09 03:00:42;;;;;;;1.97;0.90;;;;;;;4.68;100.00;92338.97;5009532;28;20076;-64
2023/01/09 03:03:37;;;;;;;1.85;0.90;;;;;;;4.67;100.00;92340.94;5009971;28;20610;-64
2023/01/09 03:06:11;;;;;;;1.73;0.80;;;;;;;4.68;100.00;92358.75;5010970;28;20050;-64
2023/01/09 03:08:50;;;;;;;1.98;0.90;;;;;;;4.63;100.00;92370.13;5011966;28;20049;-64
2023/01/09 03:11:16;;;;;;;2.88;0.85;;;;;;;4.60;100.00;92373.66;5011266;28;20076;-64
2023/01/09 03:14:02;;;;;;;1.90;0.90;;;;;;;4.60;100.00;92374.41;5011816;28;20438;-64
2023/01/09 03:16:34;;;;;;;1.90;0.70;;;;;;;4.64;100.00;92379.78;5010972;28;20446;-64
2023/01/09 03:19:03;;;;;;;2.08;0.95;;;;;;;4.68;100.00;92404.94;5011616;28;20054;-64
2023/01/09 03:21:31;;;;;;;1.65;0.70;;;;;;;4.63;100.00;92400.00;5010907;28;20050;-63
2023/01/09 03:24:00;;;;;;;1.85;0.90;;;;;;;4.52;100.00;92402.13;5011471;28;20045;-64
2023/01/09 03:26:28;;;;;;;2.70;1.03;;;;;;;4.43;100.00;92408.09;5010752;28;20828;-63
2023/01/09 03:28:55;;;;;;;2.20;1.08;;;;;;;4.48;100.00;92426.63;5011222;28;20041;-64
2023/01/09 03:31:22;;;;;;;1.80;0.90;;;;;;;4.45;100.00;92440.25;5010772;28;20064;-63
2023/01/09 03:33:50;;;;;;;1.60;0.75;;;;;;;4.47;100.00;92427.81;5011340;28;20054;-63
2023/01/09 03:36:18;;;;;;;1.90;0.90;;;;;;;4.43;100.00;92431.75;5010637;28;20050;-64
2023/01/09 03:38:45;;;;;;;1.70;0.80;;;;;;;4.46;100.00;92422.78;5011630;28;20042;-64
2023/01/09 03:41:11;;;;;;;2.20;0.90;;;;;;;4.50;100.00;92442.53;5008994;28;20046;-64
2023/01/09 03:43:38;;;;;;;2.67;0.80;;;;;;;4.55;100.00;92455.66;5011413;28;20046;-64
2023/01/09 03:46:05;;;;;;;1.88;0.60;;;;;;;4.53;100.00;92449.84;5010474;28;20499;-64
2023/01/09 03:48:32;;;;;;;1.58;0.70;;;;;;;4.58;100.00;92452.09;5010001;28;20058;-64
2023/01/09 03:50:58;;;;;;;2.20;1.10;;;;;;;4.53;100.00;92447.91;5010856;28;20061;-64
2023/01/09 03:53:26;;;;;;;1.60;0.77;;;;;;;4.46;100.00;92433.66;5010772;28;20163;-64
2023/01/09 03:55:55;;;;;;;2.00;0.70;;;;;;;4.49;100.00;92438.28;5011256;28;20054;-64
2023/01/09 03:58:23;;;;;;;1.58;0.65;;;;;;;4.48;100.00;92455.75;5010511;28;20076;-65
2023/01/09 04:00:51;;;;;;;1.63;0.60;;;;;;;4.40;100.00;92452.38;5010826;28;20513;-64
2023/01/09 04:03:19;;;;;;;1.63;0.53;;;;;;;4.40;100.00;92466.72;5010263;28;20629;-64
2023/01/09 04:05:48;;;;;;;1.75;0.65;;;;;;;4.43;100.00;92477.94;5010946;28;20046;-64
2023/01/09 04:08:15;;;;;;;1.80;0.75;;;;;;;4.36;100.00;92487.72;5009978;28;20054;-64
2023/01/09 04:10:49;;;;;;;1.60;0.70;;;;;;;4.33;100.00;92491.28;5011071;28;20076;-66
2023/01/09 04:13:16;;;;;;;2.78;0.50;;;;;;;4.30;100.00;92507.63;5010048;28;20280;-64
2023/01/09 04:15:42;;;;;;;1.70;0.83;;;;;;;4.31;100.00;92499.06;5010881;28;20126;-64
2023/01/09 04:18:09;;;;;;;5.18;2.80;;;;;;;4.25;100.00;92513.53;5010050;28;20038;-64
2023/01/09 04:20:36;;;;;;;2.30;0.98;;;;;;;4.25;100.00;92524.38;5010579;28;20413;-64
2023/01/09 04:23:02;;;;;;;5.68;1.40;;;;;;;4.31;100.00;92530.91;5009918;28;20147;-64
2023/01/09 04:25:29;;;;;;;2.20;0.90;;;;;;;4.32;100.00;92535.91;5010384;28;20415;-64
2023/01/09 04:27:56;;;;;;;1.93;1.07;;;;;;;4.20;100.00;92558.97;5010691;28;20510;-64
2023/01/09 04:30:23;;;;;;;1.70;0.77;;;;;;;4.28;100.00;92567.00;5009921;28;20038;-64
2023/01/09 04:32:51;;;;;;;1.90;1.00;;;;;;;4.27;100.00;92568.19;5010461;28;20115;-63
2023/01/09 04:35:18;;;;;;;1.70;0.70;;;;;;;4.27;100.00;92568.97;5009679;28;20666;-64
2023/01/09 04:37:48;;;;;;;1.70;0.80;;;;;;;4.25;100.00;92574.03;5010516;28;20046;-64
2023/01/09 04:40:15;;;;;;;1.70;0.90;;;;;;;4.24;100.00;92591.50;5009279;28;20054;-63
2023/01/09 04:42:42;;;;;;;2.00;0.70;;;;;;;4.10;100.00;92576.16;5010321;28;20046;-64
2023/01/09 04:45:10;;;;;;;1.63;0.80;;;;;;;4.09;100.00;92584.72;5009444;28;20410;-64
2023/01/09 04:47:37;;;;;;;1.60;0.77;;;;;;;4.00;100.00;92602.28;5010551;28;20052;-64
2023/01/09 04:50:04;;;;;;;1.85;0.98;;;;;;;4.03;100.00;92606.09;5009554;28;20395;-64
2023/01/09 04:52:32;;;;;;;1.70;0.80;;;;;;;4.00;100.00;92623.19;5012499;28;20100;-64
2023/01/09 04:54:58;;;;;;;3.53;1.42;;;;;;;3.95;100.00;92618.22;5014048;28;20500;-63
2023/01/09 04:57:25;;;;;;;1.80;1.00;;;;;;;3.82;100.00;92628.81;5012680;28;20403;-64
2023/01/09 04:59:52;;;;;;;1.80;0.90;;;;;;;3.78;100.00;92638.94;5014373;28;20049;-64
2023/01/09 05:02:19;;;;;;;3.22;1.70;;;;;;;3.78;100.00;92625.38;5013198;28;20711;-64
2023/01/09 05:04:46;;;;;;;2.70;1.30;;;;;;;3.78;100.00;92638.94;5014241;28;20115;-64
2023/01/09 05:07:13;;;;;;;1.73;0.90;;;;;;;3.84;100.00;92647.41;5013294;28;20553;-64
2023/01/09 05:09:39;;;;;;;2.45;0.90;;;;;;;3.77;100.00;92657.16;5013838;28;20042;-64
2023/01/09 05:12:06;;;;;;;3.97;2.78;;;;;;;3.69;100.00;92657.66;5013148;28;20045;-63
2023/01/09 05:14:33;;;;;;;6.82;4.22;;;;;;;3.66;100.00;92663.88;5013856;28;20042;-64
2023/01/09 05:17:00;;;;;;;4.03;2.73;;;;;;;3.63;100.00;92673.59;5013854;28;20496;-63
2023/01/09 05:19:26;;;;;;;9.60;7.18;;;;;;;3.57;100.00;92683.34;5013627;28;20050;-64
2023/01/09 05:21:53;;;;;;;1.83;1.00;;;;;;;3.49;100.00;92695.41;5013908;28;20037;-64
2023/01/09 05:24:20;;;;;;;1.63;0.70;;;;;;;3.39;100.00;92691.63;5013177;28;20072;-64
2023/01/09 05:26:46;;;;;;;2.72;1.10;;;;;;;3.49;100.00;92706.28;5013448;28;20410;-63
2023/01/09 05:29:13;;;;;;;3.17;1.10;;;;;;;3.55;100.00;92720.94;5012885;28;20050;-64
2023/01/09 05:31:40;;;;;;;2.03;0.65;;;;;;;3.54;100.00;92722.88;5012336;28;20038;-64
2023/01/09 05:34:07;;;;;;;3.00;1.75;;;;;;;3.53;100.00;92715.16;5012873;28;20046;-64
2023/01/09 05:36:33;;;;;;;1.98;0.80;;;;;;;3.53;100.00;92723.28;5013529;28;20069;-64
2023/01/09 05:39:01;;;;;;;4.30;2.10;;;;;;;3.50;100.00;92734.91;5013463;28;20408;-64
2023/01/09 05:41:28;;;;;;;3.77;2.60;;;;;;;3.38;100.00;92734.25;5012759;28;20293;-63
2023/01/09 05:43:54;;;;;;;2.28;1.20;;;;;;;3.26;100.00;92739.34;5013455;28;20050;-64
2023/01/09 05:46:21;;;;;;;3.47;1.35;;;;;;;3.15;100.00;92732.06;5012781;28;20890;-64
2023/01/09 05:48:48;;;;;;;5.82;3.50;;;;;;;3.14;100.00;92735.16;5013030;28;20139;-64
2023/01/09 05:51:14;;;;;;;4.07;2.45;;;;;;;3.05;100.00;92748.41;5012286;28;20076;-64
2023/01/09 05:53:41;;;;;;;3.97;1.60;;;;;;;3.14;100.00;92743.28;5013310;28;20053;-64
2023/01/09 05:56:08;;;;;;;2.78;1.40;;;;;;;3.07;100.00;92746.84;5012514;28;20064;-64
2023/01/09 05:58:37;;;;;;;2.20;0.70;;;;;;;3.05;100.00;92738.31;5013002;28;20048;-63
2023/01/09 06:01:04;;;;;;;2.78;1.25;;;;;;;2.89;100.00;92752.34;5006066;28;20042;-63
2023/01/09 06:03:32;;;;;;;2.53;1.33;;;;;;;2.88;100.00;92756.25;5000040;28;20046;-64
2023/01/09 06:05:58;;;;;;;2.83;1.17;;;;;;;2.91;100.00;92762.81;4993028;28;20053;-63
2023/01/09 06:08:25;;;;;;;2.80;1.30;;;;;;;2.82;99.66;92762.44;4988071;28;20050;-63
2023/01/09 06:10:52;;;;;;;2.30;0.63;;;;;;;2.84;97.72;92757.41;5011564;28;20038;-63
2023/01/09 06:13:18;;;;;;;2.88;1.92;;;;;;;2.80;97.82;92760.91;5027055;28;20048;-64
2023/01/09 06:15:47;;;;;;;1.70;0.70;;;;;;;2.72;98.87;92770.25;5012219;28;20083;-63
2023/01/09 06:18:14;;;;;;;1.80;0.83;;;;;;;2.69;96.21;92762.88;5011675;28;20050;-63
2023/01/09 06:20:43;;;;;;;3.80;1.00;;;;;;;2.70;94.77;92756.31;5012382;28;20107;-64
2023/01/09 06:23:10;;;;;;;3.17;1.00;;;;;;;2.74;94.69;92753.59;5011632;28;20050;-64
2023/01/09 06:25:39;;;;;;;1.75;0.80;;;;;;;2.78;93.81;92757.81;4993869;28;20395;-64
2023/01/09 06:28:05;;;;;;;3.25;1.02;;;;;;;2.75;95.56;92749.72;4989357;28;20041;-63
2023/01/09 06:30:33;;;;;;;2.00;1.20;;;;;;;2.75;93.62;92747.00;5011890;28;20048;-63
2023/01/09 06:32:59;;;;;;;3.38;0.82;;;;;;;2.78;95.18;92743.53;5012312;28;20380;-63
2023/01/09 06:35:26;;;;;;;2.47;1.48;;;;;;;2.81;94.70;92742.72;5010968;28;20042;-63
2023/01/09 06:37:53;;;;;;;2.40;0.73;;;;;;;2.67;96.13;92738.13;5012085;28;20458;-63
2023/01/09 06:40:20;;;;;;;2.75;1.10;;;;;;;2.71;93.54;92730.75;5011309;28;20041;-63
2023/01/09 06:42:48;;;;;;;1.80;0.53;;;;;;;2.63;95.21;92737.38;5011627;28;20099;-63
2023/01/09 06:45:15;;;;;;;2.10;0.70;;;;;;;2.58;95.92;92738.56;5007812;28;20585;-63
2023/01/09 06:47:41;;;;;;;2.75;1.30;;;;;;;2.43;97.80;92728.19;5008619;28;20434;-63
2023/01/09 06:50:09;;;;;;;2.10;0.90;;;;;;;2.30;98.26;92736.75;5010539;28;20053;-63
2023/01/09 06:52:37;;;;;;;1.73;0.80;;;;;;;2.26;99.74;92744.09;5011309;28;20050;-62
2023/01/09 06:55:04;;;;;;;3.20;1.20;;;;;;;2.14;100.00;92739.88;4981534;28;20038;-61
2023/01/09 06:57:31;;;;;;;2.00;0.75;;;;;;;2.03;100.00;92755.34;5003119;28;20049;-62
2023/01/09 06:59:58;;;;;;;3.55;1.08;;;;;;;2.02;100.00;92759.25;5009194;28;20459;-62
2023/01/09 07:02:24;;;;;;;1.80;0.68;;;;;;;2.00;100.00;92770.44;5000596;28;20499;-62
2023/01/09 07:04:51;;;;;;;2.00;0.80;;;;;;;2.02;100.00;92763.88;5026209;28;20054;-62
2023/01/09 07:07:19;;;;;;;3.47;1.00;;;;;;;1.97;100.00;92773.16;4999472;28;20054;-62
2023/01/09 07:09:45;;;;;;;3.20;0.65;;;;;;;1.96;100.00;92769.69;4992241;28;20054;-62
2023/01/09 07:12:13;;;;;;;2.88;1.10;;;;;;;1.97;100.00;92763.13;4989851;28;20440;-62
2023/01/09 07:14:40;;;;;;;3.28;1.10;;;;;;;1.96;100.00;92766.97;4990897;28;20407;-63
2023/01/09 07:17:10;;;;;;;2.58;0.93;;;;;;;1.96;100.00;92763.50;4991027;28;20042;-62
2023/01/09 07:19:37;;;;;;;5.07;0.90;;;;;;;1.98;100.00;92766.59;4988966;28;20100;-63
2023/01/09 07:22:04;;;;;;;3.03;1.20;;;;;;;1.92;100.00;92760.78;4988897;28;20052;-64
2023/01/09 07:24:30;;;;;;;2.75;1.00;;;;;;;1.90;100.00;92756.94;4988928;28;20038;-69
2023/01/09 07:26:57;;;;;;;5.93;0.80;;;;;;;1.87;100.00;92769.31;4987594;28;20042;-63
2023/01/09 07:29:24;;;;;;;2.72;0.90;;;;;;;1.88;100.00;92770.84;4990118;28;20045;-63
2023/01/09 07:31:50;;;;;;;3.37;0.83;;;;;;;1.94;100.00;92771.22;5010011;28;20107;-63
2023/01/09 07:34:18;;;;;;;4.68;1.60;;;;;;;1.96;100.00;92772.38;5010405;28;20044;-62
2023/01/09 07:36:45;;;;;;;3.42;1.13;;;;;;;1.93;100.00;92773.19;5011085;28;20052;-63
2023/01/09 07:39:12;;;;;;;3.17;0.63;;;;;;;1.94;100.00;92782.81;5010313;28;20072;-62
2023/01/09 07:41:39;;;;;;;5.63;1.80;;;;;;;1.88;100.00;92789.03;4997854;28;20336;-62
2023/01/09 07:44:06;;;;;;;2.47;1.00;;;;;;;1.96;100.00;92787.84;4991165;28;20177;-62
2023/01/09 07:46:36;;;;;;;2.88;0.90;;;;;;;1.98;100.00;92780.13;4991417;28;20108;-62
2023/01/09 07:49:03;;;;;;;6.43;1.08;;;;;;;1.96;100.00;92785.91;4978169;28;20046;-61
2023/01/09 07:51:30;;;;;;;2.67;0.80;;;;;;;2.05;100.00;92788.22;4991245;28;20420;-62
2023/01/09 07:53:56;;;;;;;3.50;1.33;;;;;;;2.10;100.00;92792.47;4987006;28;20499;-62
2023/01/09 07:56:23;;;;;;;6.10;1.83;;;;;;;2.09;100.00;92786.28;4989498;28;20046;-62
2023/01/09 07:58:49;;;;;;;6.80;1.40;;;;;;;2.04;100.00;92780.50;4989614;28;20050;-62
2023/01/09 08:01:16;;;;;;;6.40;1.10;;;;;;;2.03;100.00;92773.53;4990378;28;20049;-62
2023/01/09 08:03:43;;;;;;;3.17;1.08;;;;;;;2.13;100.00;92781.66;5000140;28;20046;-63
2023/01/09 08:06:10;;;;;;;4.38;1.27;;;;;;;2.16;100.00;92780.09;4990187;28;20058;-62
2023/01/09 08:08:37;;;;;;;4.33;1.20;;;;;;;2.14;100.00;92782.41;4991031;28;20064;-62
2023/01/09 08:11:03;;;;;;;5.90;1.00;;;;;;;2.07;100.00;92780.47;4990539;28;20046;-62
2023/01/09 08:13:30;;;;;;;3.80;1.20;;;;;;;2.14;100.00;92780.47;4990330;28;20462;-62
2023/01/09 08:15:57;;;;;;;3.25;1.13;;;;;;;2.18;100.00;92781.25;5001483;28;20180;-62
2023/01/09 08:18:23;;;;;;;5.30;0.80;;;;;;;2.28;100.00;92776.97;5010038;28;20438;-62
2023/01/09 08:20:50;;;;;;;6.37;2.73;;;;;;;2.31;100.00;92767.28;5010686;28;20060;-62
2023/01/09 08:23:17;;;;;;;4.20;1.25;;;;;;;2.22;100.00;92769.66;5009305;28;20152;-63
2023/01/09 08:25:43;;;;;;;4.07;1.42;;;;;;;2.38;100.00;92768.03;5010276;28;20042;-62
2023/01/09 08:28:11;;;;;;;4.15;0.80;;;;;;;2.32;100.00;92783.16;5009480;28;20037;-62
2023/01/09 08:30:38;;;;;;;3.47;1.30;;;;;;;2.27;100.00;92780.06;5004484;28;20431;-62
2023/01/09 08:33:04;;;;;;;4.03;1.23;;;;;;;2.40;100.00;92778.50;4990895;28;20069;-62
2023/01/09 08:35:31;;;;;;;4.35;1.02;;;;;;;2.50;100.00;92785.03;4989404;28;20042;-62
2023/01/09 08:37:58;;;;;;;3.72;1.50;;;;;;;2.66;100.00;92790.00;4986879;28;20414;-62
2023/01/09 08:40:24;;;;;;;4.28;1.10;;;;;;;2.58;100.00;92784.63;4990107;28;20042;-62
2023/01/09 08:48:22;;;;;;;2.67;0.82;;;;;;;3.68;100.00;92781.69;5006781;28;20054;-62
2023/01/09 08:50:48;;;;;;;2.83;1.10;;;;;;;3.67;100.00;92766.56;4982800;28;20416;-63
2023/01/09 08:53:15;;;;;;;3.60;1.00;;;;;;;3.39;100.00;92773.75;4986344;28;20058;-62
2023/01/09 08:55:42;;;;;;;5.50;0.95;;;;;;;3.45;100.00;92778.75;5010354;28;20046;-63
2023/01/09 08:58:09;;;;;;;4.17;0.90;;;;;;;3.15;100.00;92783.56;5009578;28;20388;-62
2023/01/09 09:00:36;;;;;;;3.92;0.95;;;;;;;3.02;100.00;92777.06;5009367;28;20103;-61
2023/01/09 09:03:03;;;;;;;3.50;1.10;;;;;;;3.02;100.00;92779.78;5001328;28;20055;-62
2023/01/09 09:05:31;;;;;;;2.47;0.80;;;;;;;3.05;100.00;92789.81;4990138;28;20042;-62
2023/01/09 09:07:58;;;;;;;4.88;1.40;;;;;;;3.08;100.00;92783.63;4983089;28;20055;-62
2023/01/09 09:10:27;;;;;;;3.07;0.80;;;;;;;3.22;100.00;92780.06;5003679;28;20098;-62
2023/01/09 09:12:57;;;;;;;3.05;0.90;;;;;;;3.34;100.00;92792.38;5010087;28;20076;-63
2023/01/09 09:15:25;;;;;;;6.90;0.88;;;;;;;3.63;100.00;92792.19;5009116;28;20553;-62
2023/01/09 09:17:57;;;;;;;3.85;1.00;;;;;;;3.71;100.00;92785.53;5024951;28;20406;-63
2023/01/09 09:20:27;;;;;;;2.63;1.10;;;;;;;3.48;100.00;92783.38;5007836;28;20050;-62
2023/01/09 09:22:54;;;;;;;3.53;0.83;;;;;;;3.34;100.00;92781.53;4982767;28;20434;-62
2023/01/09 09:25:21;;;;;;;4.63;0.95;;;;;;;3.32;100.00;92790.06;5004553;28;20042;-62
2023/01/09 09:27:48;;;;;;;4.40;0.98;;;;;;;3.43;100.00;92798.13;5009852;28;20083;-62
2023/01/09 09:30:17;;;;;;;4.45;1.05;;;;;;;3.38;100.00;92796.63;5008619;28;20096;-63
2023/01/09 09:32:44;;;;;;;5.47;1.40;;;;;;;3.46;100.00;92802.78;5009783;28;20046;-62
2023/01/09 09:35:11;;;;;;;5.60;1.10;;;;;;;3.59;100.00;92805.78;5009328;28;20061;-62
2023/01/09 09:37:38;;;;;;;3.08;0.93;;;;;;;3.68;99.70;92794.47;5010140;28;20038;-62
2023/01/09 09:40:06;;;;;;;4.57;1.20;;;;;;;4.10;98.45;92796.06;5013075;28;20721;-62
2023/01/09 09:46:18;;;;;;;4.05;1.10;;;;;;;5.04;89.75;92793.13;5011893;28;20046;-62
2023/01/09 09:48:54;;;;;;;5.67;1.20;;;;;;;4.72;93.22;92797.00;5013229;28;20041;-62
2023/01/09 09:51:45;;;;;;;5.00;1.15;;;;;;;4.55;94.27;92801.44;5012609;28;20045;-62
2023/01/09 09:54:15;;;;;;;5.75;1.05;;;;;;;4.81;92.76;92801.97;5012421;28;20054;-63
2023/01/09 09:56:55;;;;;;;4.63;0.90;;;;;;;4.71;92.11;92792.75;5013173;28;20435;-63
2023/01/09 09:59:26;;;;;;;4.90;1.00;;;;;;;4.84;93.58;92792.22;5012104;28;20050;-62
2023/01/09 10:02:40;;;;;;;4.53;0.90;;;;;;;4.92;91.88;92789.00;5012729;28;20127;-63
2023/01/09 10:05:33;;;;;;;3.38;0.90;;;;;;;5.57;87.98;92769.88;5011133;28;20089;-62
2023/01/09 10:08:12;;;;;;;5.10;1.20;;;;;;;4.95;91.49;92777.31;5012764;28;20046;-63
2023/01/09 10:10:49;;;;;;;5.03;1.10;;;;;;;4.66;94.48;92786.97;5012151;28;20084;-63
2023/01/09 10:16:29;;;;;;;4.40;1.07;;;;;;;4.02;97.89;92791.88;4982036;28;20047;-62
2023/01/09 10:19:18;;;;;;;5.70;1.20;;;;;;;4.08;97.83;92794.91;4995296;28;20114;-63
2023/01/09 10:21:57;;;;;;;5.93;1.08;;;;;;;3.97;98.01;92795.03;5011206;28;20431;-63
2023/01/09 10:24:40;;;;;;;6.78;0.85;;;;;;;3.96;99.56;92791.53;5011783;28;20038;-62
2023/01/09 10:27:29;;;;;;;5.70;1.10;;;;;;;3.78;99.53;92793.59;4995017;28;20038;-62
2023/01/09 10:30:33;;;;;;;3.77;1.00;;;;;;;3.68;100.00;92802.59;4986571;28;20100;-62
2023/01/09 10:33:22;;;;;;;3.65;1.10;;;;;;;3.70;100.00;92798.34;5003821;28;20722;-63
2023/01/09 10:36:24;;;;;;;5.88;1.30;;;;;;;3.82;100.00;92791.63;4991971;28;20866;-63
2023/01/09 10:38:55;;;;;;;4.30;1.35;;;;;;;3.57;100.00;92789.91;4992150;28;21975;-62
2023/01/09 10:41:25;;;;;;;6.53;1.40;;;;;;;3.64;100.00;92785.59;4989763;28;20050;-63
2023/01/09 10:44:00;;;;;;;5.53;1.27;;;;;;;3.66;100.00;92784.00;5012037;28;20042;-62
2023/01/09 10:46:34;;;;;;;4.82;1.52;;;;;;;3.67;100.00;92782.09;5025557;28;20034;-63
2023/01/09 10:49:12;;;;;;;5.35;1.58;;;;;;;3.76;100.00;92769.59;4983109;28;20042;-63
2023/01/09 10:51:49;;;;;;;7.07;1.27;;;;;;;3.73;100.00;92775.06;4986787;28;20046;-63
2023/01/09 10:54:20;;;;;;;6.22;1.30;;;;;;;3.92;100.00;92774.50;5010866;28;20460;-62
2023/01/09 10:56:55;;;;;;;3.33;0.80;;;;;;;4.07;100.00;92763.53;5012059;28;20046;-62
2023/01/09 10:59:23;;;;;;;13.27;3.70;;;;;;;4.07;100.00;92761.56;5011558;28;20055;-62
2023/01/09 11:01:50;;;;;;;9.85;2.17;;;;;;;3.87;100.00;92774.94;5026270;28;20077;-63
2023/01/09 11:04:30;;;;;;;15.10;4.63;;;;;;;4.00;100.00;92767.84;5009255;28;20042;-62
2023/01/09 11:07:18;;;;;;;6.50;1.80;;;;;;;4.15;100.00;92767.72;4992064;28;20085;-63
2023/01/09 11:10:10;;;;;;;7.13;1.70;;;;;;;4.18;100.00;92775.81;4987128;28;20176;-63
2023/01/09 11:12:38;;;;;;;7.90;1.60;;;;;;;4.05;100.00;92761.22;5010633;28;20466;-63
2023/01/09 11:15:20;;;;;;;9.32;3.70;;;;;;;4.21;99.71;92755.25;5011176;28;20053;-63
2023/01/09 11:17:50;;;;;;;11.90;4.95;;;;;;;4.26;100.00;92754.78;4984019;28;20054;-64
2023/01/09 11:20:25;;;;;;;12.57;5.72;;;;;;;4.27;100.00;92750.16;5006798;28;20491;-63
2023/01/09 11:22:55;;;;;;;5.80;1.77;;;;;;;4.31;99.84;92753.59;5011623;28;20442;-64
2023/01/09 11:25:24;;;;;;;5.32;1.00;;;;;;;4.17;100.00;92749.06;5010736;28;20127;-64
2023/01/09 11:28:00;;;;;;;9.07;1.15;;;;;;;4.08;100.00;92749.53;5011697;28;20054;-63
2023/01/09 11:30:32;;;;;;;9.38;2.50;;;;;;;4.14;100.00;92744.44;5010295;28;20128;-63
2023/01/09 11:32:59;;;;;;;10.75;2.92;;;;;;;3.95;100.00;92746.56;5011487;28;20078;-63
2023/01/09 11:35:32;;;;;;;6.07;2.40;;;;;;;4.06;100.00;92751.88;5010617;28;20414;-63
2023/01/09 11:38:15;;;;;;;5.22;1.48;;;;;;;4.14;100.00;92749.88;5011255;28;20069;-64
2023/01/09 11:40:50;;;;;;;6.30;1.42;;;;;;;4.22;100.00;92743.19;5009919;28;21390;-63
2023/01/09 11:43:21;;;;;;;5.53;1.33;;;;;;;4.28;100.00;92751.69;5010490;28;20037;-63
2023/01/09 11:45:51;;;;;;;6.68;1.70;;;;;;;4.52;100.00;92745.19;5003676;28;20093;-63
2023/01/09 11:48:39;;;;;;;4.77;1.20;;;;;;;4.40;100.00;92732.91;4991690;28;20043;-62
2023/01/09 11:51:27;;;;;;;5.10;1.40;;;;;;;4.40;100.00;92738.34;4987370;28;20561;-62
2023/01/09 11:54:04;;;;;;;4.38;1.10;;;;;;;4.35;100.00;92741.50;5002554;28;20042;-63
2023/01/09 11:56:31;;;;;;;5.95;1.02;;;;;;;4.56;100.00;92737.00;5009928;28;20096;-63
2023/01/09 11:58:59;;;;;;;4.05;1.20;;;;;;;4.60;100.00;92740.47;5010247;28;20119;-63
2023/01/09 12:01:41;;;;;;;2.93;0.73;;;;;;;4.61;100.00;92739.28;5009628;28;20052;-63
2023/01/09 12:04:19;;;;;;;4.38;1.10;;;;;;;4.58;100.00;92745.53;5008730;28;20046;-63
2023/01/09 12:07:08;;;;;;;3.65;1.23;;;;;;;4.37;100.00;92751.97;5004292;28;20058;-63